sensor_id;sensor_type;location;lat;lon;timestamp;P1;durP1;ratioP1;P2;durP2;ratioP2
7501;SDS011;3792;47.740;7.606;2023-04-07T00:01:01;2.10;;;2.00;;
7501;SDS011;3792;47.740;7.606;2023-04-07T00:03:30;2.87;;;2.57;;
7501;SDS011;3792;47.740;7.606;2023-04-07T00:05:57;2.17;;;2.07;;
7501;SDS011;3792;47.740;7.606;2023-04-07T00:08:25;3.87;;;2.43;;
7501;SDS011;3792;47.740;7.606;2023-04-07T00:10:52;3.40;;;2.60;;
7501;SDS011;3792;47.740;7.606;2023-04-07T00:13:19;2.57;;;2.37;;
7501;SDS011;3792;47.740;7.606;2023-04-07T00:15:46;3.77;;;2.93;;
7501;SDS011;3792;47.740;7.606;2023-04-07T00:18:13;3.20;;;2.43;;
7501;SDS011;3792;47.740;7.606;2023-04-07T00:20:41;4.77;;;2.67;;
7501;SDS011;3792;47.740;7.606;2023-04-07T00:23:08;4.10;;;2.10;;
7501;SDS011;3792;47.740;7.606;2023-04-07T00:25:35;2.53;;;2.27;;
7501;SDS011;3792;47.740;7.606;2023-04-07T00:28:02;2.40;;;2.20;;
7501;SDS011;3792;47.740;7.606;2023-04-07T00:30:29;2.40;;;2.20;;
7501;SDS011;3792;47.740;7.606;2023-04-07T00:32:56;3.10;;;2.30;;
7501;SDS011;3792;47.740;7.606;2023-04-07T00:35:23;3.57;;;2.47;;
7501;SDS011;3792;47.740;7.606;2023-04-07T00:37:52;4.13;;;2.80;;
7501;SDS011;3792;47.740;7.606;2023-04-07T00:40:19;2.90;;;2.20;;
7501;SDS011;3792;47.740;7.606;2023-04-07T00:42:46;2.60;;;2.37;;
7501;SDS011;3792;47.740;7.606;2023-04-07T00:45:13;2.40;;;2.07;;
7501;SDS011;3792;47.740;7.606;2023-04-07T00:47:40;3.57;;;2.03;;
7501;SDS011;3792;47.740;7.606;2023-04-07T00:50:07;2.00;;;1.80;;
7501;SDS011;3792;47.740;7.606;2023-04-07T00:52:35;3.23;;;2.17;;
7501;SDS011;3792;47.740;7.606;2023-04-07T00:55:04;2.40;;;2.13;;
7501;SDS011;3792;47.740;7.606;2023-04-07T00:57:31;2.63;;;2.20;;
7501;SDS011;3792;47.740;7.606;2023-04-07T00:59:58;2.67;;;2.17;;
7501;SDS011;3792;47.740;7.606;2023-04-07T01:02:27;3.23;;;2.47;;
7501;SDS011;3792;47.740;7.606;2023-04-07T01:05:01;2.40;;;2.20;;
7501;SDS011;3792;47.740;7.606;2023-04-07T01:07:37;1.97;;;1.83;;
7501;SDS011;3792;47.740;7.606;2023-04-07T01:10:13;2.27;;;2.00;;
7501;SDS011;3792;47.740;7.606;2023-04-07T01:12:46;2.47;;;2.20;;
7501;SDS011;3792;47.740;7.606;2023-04-07T01:15:20;2.20;;;1.97;;
7501;SDS011;3792;47.740;7.606;2023-04-07T01:17:51;2.83;;;2.07;;
7501;SDS011;3792;47.740;7.606;2023-04-07T01:20:22;2.97;;;2.67;;
7501;SDS011;3792;47.740;7.606;2023-04-07T01:22:53;2.33;;;2.03;;
7501;SDS011;3792;47.740;7.606;2023-04-07T01:25:25;3.23;;;2.30;;
7501;SDS011;3792;47.740;7.606;2023-04-07T01:28:07;2.13;;;1.93;;
7501;SDS011;3792;47.740;7.606;2023-04-07T01:30:42;4.03;;;2.00;;
7501;SDS011;3792;47.740;7.606;2023-04-07T01:33:10;2.80;;;2.13;;
7501;SDS011;3792;47.740;7.606;2023-04-07T01:35:39;2.53;;;2.30;;
7501;SDS011;3792;47.740;7.606;2023-04-07T01:38:08;3.30;;;2.80;;
7501;SDS011;3792;47.740;7.606;2023-04-07T01:40:37;4.80;;;2.03;;
7501;SDS011;3792;47.740;7.606;2023-04-07T01:43:05;2.67;;;2.27;;
7501;SDS011;3792;47.740;7.606;2023-04-07T01:45:33;3.67;;;2.30;;
7501;SDS011;3792;47.740;7.606;2023-04-07T01:48:05;1.83;;;1.73;;
7501;SDS011;3792;47.740;7.606;2023-04-07T01:50:33;2.10;;;1.90;;
7501;SDS011;3792;47.740;7.606;2023-04-07T01:53:01;2.20;;;2.00;;
7501;SDS011;3792;47.740;7.606;2023-04-07T01:55:30;2.50;;;2.00;;
7501;SDS011;3792;47.740;7.606;2023-04-07T01:57:57;2.20;;;1.87;;
7501;SDS011;3792;47.740;7.606;2023-04-07T02:00:29;2.63;;;1.93;;
7501;SDS011;3792;47.740;7.606;2023-04-07T02:02:57;2.07;;;1.90;;
7501;SDS011;3792;47.740;7.606;2023-04-07T02:05:31;1.80;;;1.70;;
7501;SDS011;3792;47.740;7.606;2023-04-07T02:08:01;2.33;;;2.10;;
7501;SDS011;3792;47.740;7.606;2023-04-07T02:10:31;2.83;;;2.00;;
7501;SDS011;3792;47.740;7.606;2023-04-07T02:13:00;3.40;;;1.80;;
7501;SDS011;3792;47.740;7.606;2023-04-07T02:15:29;2.13;;;1.90;;
7501;SDS011;3792;47.740;7.606;2023-04-07T02:17:57;3.97;;;2.50;;
7501;SDS011;3792;47.740;7.606;2023-04-07T02:20:25;3.80;;;1.97;;
7501;SDS011;3792;47.740;7.606;2023-04-07T02:22:56;3.23;;;2.00;;
7501;SDS011;3792;47.740;7.606;2023-04-07T02:25:24;2.30;;;2.10;;
7501;SDS011;3792;47.740;7.606;2023-04-07T02:27:52;2.83;;;2.13;;
7501;SDS011;3792;47.740;7.606;2023-04-07T02:30:21;3.97;;;1.93;;
7501;SDS011;3792;47.740;7.606;2023-04-07T02:32:48;2.30;;;2.10;;
7501;SDS011;3792;47.740;7.606;2023-04-07T02:35:15;3.73;;;1.90;;
7501;SDS011;3792;47.740;7.606;2023-04-07T02:37:42;2.50;;;2.30;;
7501;SDS011;3792;47.740;7.606;2023-04-07T02:40:11;4.00;;;2.13;;
7501;SDS011;3792;47.740;7.606;2023-04-07T02:42:39;2.37;;;2.17;;
7501;SDS011;3792;47.740;7.606;2023-04-07T02:45:06;2.00;;;1.90;;
7501;SDS011;3792;47.740;7.606;2023-04-07T02:47:35;2.90;;;2.17;;
7501;SDS011;3792;47.740;7.606;2023-04-07T02:50:02;2.20;;;2.00;;
7501;SDS011;3792;47.740;7.606;2023-04-07T02:52:29;2.27;;;2.10;;
7501;SDS011;3792;47.740;7.606;2023-04-07T02:54:56;2.17;;;1.97;;
7501;SDS011;3792;47.740;7.606;2023-04-07T02:57:25;2.47;;;2.27;;
7501;SDS011;3792;47.740;7.606;2023-04-07T02:59:52;2.47;;;2.27;;
7501;SDS011;3792;47.740;7.606;2023-04-07T03:02:20;2.47;;;1.90;;
7501;SDS011;3792;47.740;7.606;2023-04-07T03:04:47;3.73;;;2.10;;
7501;SDS011;3792;47.740;7.606;2023-04-07T03:07:14;2.40;;;2.20;;
7501;SDS011;3792;47.740;7.606;2023-04-07T03:09:41;3.73;;;2.07;;
7501;SDS011;3792;47.740;7.606;2023-04-07T03:12:08;3.23;;;2.70;;
7501;SDS011;3792;47.740;7.606;2023-04-07T03:14:36;2.93;;;2.20;;
7501;SDS011;3792;47.740;7.606;2023-04-07T03:17:03;2.77;;;1.90;;
7501;SDS011;3792;47.740;7.606;2023-04-07T03:19:30;2.43;;;2.00;;
7501;SDS011;3792;47.740;7.606;2023-04-07T03:21:57;2.43;;;2.23;;
7501;SDS011;3792;47.740;7.606;2023-04-07T03:24:25;2.30;;;2.10;;
7501;SDS011;3792;47.740;7.606;2023-04-07T03:26:52;2.20;;;2.00;;
7501;SDS011;3792;47.740;7.606;2023-04-07T03:29:19;2.63;;;1.77;;
7501;SDS011;3792;47.740;7.606;2023-04-07T03:31:47;1.87;;;1.70;;
7501;SDS011;3792;47.740;7.606;2023-04-07T03:34:14;2.33;;;1.90;;
7501;SDS011;3792;47.740;7.606;2023-04-07T03:36:41;2.40;;;2.20;;
7501;SDS011;3792;47.740;7.606;2023-04-07T03:39:08;3.27;;;2.07;;
7501;SDS011;3792;47.740;7.606;2023-04-07T03:41:35;3.20;;;1.80;;
7501;SDS011;3792;47.740;7.606;2023-04-07T03:44:02;2.47;;;2.27;;
7501;SDS011;3792;47.740;7.606;2023-04-07T03:46:29;3.23;;;2.13;;
7501;SDS011;3792;47.740;7.606;2023-04-07T03:48:58;2.23;;;2.03;;
7501;SDS011;3792;47.740;7.606;2023-04-07T03:51:25;14.70;;;10.23;;
7501;SDS011;3792;47.740;7.606;2023-04-07T03:53:52;63.70;;;34.43;;
7501;SDS011;3792;47.740;7.606;2023-04-07T03:56:19;54.97;;;29.53;;
7501;SDS011;3792;47.740;7.606;2023-04-07T03:58:46;39.90;;;22.37;;
7501;SDS011;3792;47.740;7.606;2023-04-07T04:01:14;7.20;;;4.20;;
7501;SDS011;3792;47.740;7.606;2023-04-07T04:03:41;4.73;;;3.20;;
7501;SDS011;3792;47.740;7.606;2023-04-07T04:06:09;32.70;;;16.90;;
7501;SDS011;3792;47.740;7.606;2023-04-07T04:08:36;9.30;;;5.53;;
7501;SDS011;3792;47.740;7.606;2023-04-07T04:11:03;2.63;;;2.43;;
7501;SDS011;3792;47.740;7.606;2023-04-07T04:13:30;2.33;;;2.13;;
7501;SDS011;3792;47.740;7.606;2023-04-07T04:15:57;2.30;;;1.90;;
7501;SDS011;3792;47.740;7.606;2023-04-07T04:18:24;2.30;;;2.00;;
7501;SDS011;3792;47.740;7.606;2023-04-07T04:20:51;2.90;;;2.50;;
7501;SDS011;3792;47.740;7.606;2023-04-07T04:23:20;10.37;;;8.53;;
7501;SDS011;3792;47.740;7.606;2023-04-07T04:25:47;6.17;;;4.50;;
7501;SDS011;3792;47.740;7.606;2023-04-07T04:28:14;5.47;;;2.40;;
7501;SDS011;3792;47.740;7.606;2023-04-07T04:30:41;2.70;;;2.10;;
7501;SDS011;3792;47.740;7.606;2023-04-07T04:33:08;2.30;;;2.10;;
7501;SDS011;3792;47.740;7.606;2023-04-07T04:35:35;3.07;;;2.30;;
7501;SDS011;3792;47.740;7.606;2023-04-07T04:38:01;3.23;;;2.60;;
7501;SDS011;3792;47.740;7.606;2023-04-07T04:40:30;2.37;;;1.80;;
7501;SDS011;3792;47.740;7.606;2023-04-07T04:42:57;2.00;;;1.80;;
7501;SDS011;3792;47.740;7.606;2023-04-07T04:45:24;3.50;;;2.33;;
7501;SDS011;3792;47.740;7.606;2023-04-07T04:47:51;2.23;;;2.00;;
7501;SDS011;3792;47.740;7.606;2023-04-07T04:50:18;2.50;;;2.30;;
7501;SDS011;3792;47.740;7.606;2023-04-07T04:52:45;4.43;;;3.27;;
7501;SDS011;3792;47.740;7.606;2023-04-07T04:55:12;1.93;;;1.83;;
7501;SDS011;3792;47.740;7.606;2023-04-07T04:57:40;2.63;;;2.43;;
7501;SDS011;3792;47.740;7.606;2023-04-07T05:00:08;2.10;;;1.90;;
7501;SDS011;3792;47.740;7.606;2023-04-07T05:02:35;5.10;;;3.10;;
7501;SDS011;3792;47.740;7.606;2023-04-07T05:05:03;4.50;;;2.87;;
7501;SDS011;3792;47.740;7.606;2023-04-07T05:07:31;4.30;;;3.60;;
7501;SDS011;3792;47.740;7.606;2023-04-07T05:09:58;4.23;;;3.27;;
7501;SDS011;3792;47.740;7.606;2023-04-07T05:12:25;4.23;;;2.70;;
7501;SDS011;3792;47.740;7.606;2023-04-07T05:14:53;4.37;;;3.03;;
7501;SDS011;3792;47.740;7.606;2023-04-07T05:17:20;5.07;;;3.00;;
7501;SDS011;3792;47.740;7.606;2023-04-07T05:19:47;2.90;;;2.70;;
7501;SDS011;3792;47.740;7.606;2023-04-07T05:22:14;4.80;;;3.17;;
7501;SDS011;3792;47.740;7.606;2023-04-07T05:24:41;3.70;;;3.27;;
7501;SDS011;3792;47.740;7.606;2023-04-07T05:27:08;3.43;;;3.13;;
7501;SDS011;3792;47.740;7.606;2023-04-07T05:29:35;10.43;;;3.07;;
7501;SDS011;3792;47.740;7.606;2023-04-07T05:32:05;3.60;;;2.70;;
7501;SDS011;3792;47.740;7.606;2023-04-07T05:34:32;3.10;;;2.80;;
7501;SDS011;3792;47.740;7.606;2023-04-07T05:36:59;3.07;;;2.67;;
7501;SDS011;3792;47.740;7.606;2023-04-07T05:39:26;3.50;;;2.73;;
7501;SDS011;3792;47.740;7.606;2023-04-07T05:41:53;4.20;;;2.77;;
7501;SDS011;3792;47.740;7.606;2023-04-07T05:44:20;4.40;;;2.57;;
7501;SDS011;3792;47.740;7.606;2023-04-07T05:46:47;4.93;;;3.40;;
7501;SDS011;3792;47.740;7.606;2023-04-07T05:49:16;4.90;;;2.83;;
7501;SDS011;3792;47.740;7.606;2023-04-07T05:51:43;3.07;;;2.77;;
7501;SDS011;3792;47.740;7.606;2023-04-07T05:54:10;4.50;;;3.10;;
7501;SDS011;3792;47.740;7.606;2023-04-07T05:56:37;3.37;;;3.07;;
7501;SDS011;3792;47.740;7.606;2023-04-07T05:59:04;3.30;;;3.00;;
7501;SDS011;3792;47.740;7.606;2023-04-07T06:01:31;3.33;;;3.03;;
7501;SDS011;3792;47.740;7.606;2023-04-07T06:03:58;3.40;;;3.03;;
7501;SDS011;3792;47.740;7.606;2023-04-07T06:06:28;4.50;;;3.10;;
7501;SDS011;3792;47.740;7.606;2023-04-07T06:08:55;5.00;;;3.13;;
7501;SDS011;3792;47.740;7.606;2023-04-07T06:11:22;3.27;;;2.97;;
7501;SDS011;3792;47.740;7.606;2023-04-07T06:13:49;2.90;;;2.70;;
7501;SDS011;3792;47.740;7.606;2023-04-07T06:16:16;3.20;;;2.90;;
7501;SDS011;3792;47.740;7.606;2023-04-07T06:18:43;5.27;;;3.70;;
7501;SDS011;3792;47.740;7.606;2023-04-07T06:21:10;3.57;;;3.27;;
7501;SDS011;3792;47.740;7.606;2023-04-07T06:23:39;3.63;;;3.17;;
7501;SDS011;3792;47.740;7.606;2023-04-07T06:26:08;3.77;;;3.47;;
7501;SDS011;3792;47.740;7.606;2023-04-07T06:28:36;4.00;;;3.60;;
7501;SDS011;3792;47.740;7.606;2023-04-07T06:31:03;3.93;;;3.57;;
7501;SDS011;3792;47.740;7.606;2023-04-07T06:33:31;5.03;;;3.80;;
7501;SDS011;3792;47.740;7.606;2023-04-07T06:35:58;4.37;;;3.97;;
7501;SDS011;3792;47.740;7.606;2023-04-07T06:38:25;4.77;;;3.80;;
7501;SDS011;3792;47.740;7.606;2023-04-07T06:40:53;5.47;;;4.13;;
7501;SDS011;3792;47.740;7.606;2023-04-07T06:43:20;4.30;;;3.60;;
7501;SDS011;3792;47.740;7.606;2023-04-07T06:45:47;6.50;;;4.20;;
7501;SDS011;3792;47.740;7.606;2023-04-07T06:48:14;3.90;;;3.60;;
7501;SDS011;3792;47.740;7.606;2023-04-07T06:50:44;5.27;;;4.47;;
7501;SDS011;3792;47.740;7.606;2023-04-07T06:53:11;5.43;;;4.60;;
7501;SDS011;3792;47.740;7.606;2023-04-07T06:55:38;4.20;;;3.83;;
7501;SDS011;3792;47.740;7.606;2023-04-07T06:58:07;5.20;;;4.20;;
7501;SDS011;3792;47.740;7.606;2023-04-07T07:00:34;5.37;;;3.60;;
7501;SDS011;3792;47.740;7.606;2023-04-07T07:03:01;5.00;;;4.20;;
7501;SDS011;3792;47.740;7.606;2023-04-07T07:05:28;4.33;;;3.93;;
7501;SDS011;3792;47.740;7.606;2023-04-07T07:07:55;4.50;;;3.90;;
7501;SDS011;3792;47.740;7.606;2023-04-07T07:10:22;4.40;;;4.00;;
7501;SDS011;3792;47.740;7.606;2023-04-07T07:12:50;6.53;;;4.47;;
7501;SDS011;3792;47.740;7.606;2023-04-07T07:15:18;6.70;;;4.40;;
7501;SDS011;3792;47.740;7.606;2023-04-07T07:17:45;5.40;;;4.90;;
7501;SDS011;3792;47.740;7.606;2023-04-07T07:20:12;13.17;;;10.57;;
7501;SDS011;3792;47.740;7.606;2023-04-07T07:22:39;6.90;;;4.40;;
7501;SDS011;3792;47.740;7.606;2023-04-07T07:25:07;5.43;;;4.83;;
7501;SDS011;3792;47.740;7.606;2023-04-07T07:27:34;5.27;;;4.53;;
7501;SDS011;3792;47.740;7.606;2023-04-07T07:30:01;5.47;;;4.67;;
7501;SDS011;3792;47.740;7.606;2023-04-07T07:32:30;5.80;;;4.90;;
7501;SDS011;3792;47.740;7.606;2023-04-07T07:34:57;6.23;;;5.20;;
7501;SDS011;3792;47.740;7.606;2023-04-07T07:37:24;6.20;;;5.03;;
7501;SDS011;3792;47.740;7.606;2023-04-07T07:39:52;5.63;;;4.20;;
7501;SDS011;3792;47.740;7.606;2023-04-07T07:42:20;4.63;;;4.00;;
7501;SDS011;3792;47.740;7.606;2023-04-07T07:44:47;6.50;;;5.90;;
7501;SDS011;3792;47.740;7.606;2023-04-07T07:47:15;5.00;;;4.50;;
7501;SDS011;3792;47.740;7.606;2023-04-07T07:49:43;3.60;;;3.30;;
7501;SDS011;3792;47.740;7.606;2023-04-07T07:52:10;3.20;;;2.90;;
7501;SDS011;3792;47.740;7.606;2023-04-07T07:54:37;3.97;;;3.07;;
7501;SDS011;3792;47.740;7.606;2023-04-07T07:57:04;3.27;;;2.93;;
7501;SDS011;3792;47.740;7.606;2023-04-07T07:59:31;2.70;;;2.40;;
7501;SDS011;3792;47.740;7.606;2023-04-07T08:01:59;2.53;;;1.90;;
7501;SDS011;3792;47.740;7.606;2023-04-07T08:04:26;2.60;;;1.90;;
7501;SDS011;3792;47.740;7.606;2023-04-07T08:06:54;1.80;;;1.60;;
7501;SDS011;3792;47.740;7.606;2023-04-07T08:09:22;2.10;;;1.47;;
7501;SDS011;3792;47.740;7.606;2023-04-07T08:11:49;1.20;;;1.20;;
7501;SDS011;3792;47.740;7.606;2023-04-07T08:14:16;1.93;;;1.30;;
7501;SDS011;3792;47.740;7.606;2023-04-07T08:16:44;1.47;;;1.37;;
7501;SDS011;3792;47.740;7.606;2023-04-07T08:19:12;1.00;;;1.00;;
7501;SDS011;3792;47.740;7.606;2023-04-07T08:21:39;0.90;;;0.90;;
7501;SDS011;3792;47.740;7.606;2023-04-07T08:24:08;0.80;;;0.80;;
7501;SDS011;3792;47.740;7.606;2023-04-07T08:26:35;2.00;;;1.20;;
7501;SDS011;3792;47.740;7.606;2023-04-07T08:29:02;1.30;;;1.20;;
7501;SDS011;3792;47.740;7.606;2023-04-07T08:31:29;0.70;;;0.70;;
7501;SDS011;3792;47.740;7.606;2023-04-07T08:33:56;0.93;;;0.90;;
7501;SDS011;3792;47.740;7.606;2023-04-07T08:36:23;0.63;;;0.63;;
7501;SDS011;3792;47.740;7.606;2023-04-07T08:38:52;0.80;;;0.80;;
7501;SDS011;3792;47.740;7.606;2023-04-07T08:41:21;0.60;;;0.60;;
7501;SDS011;3792;47.740;7.606;2023-04-07T08:44:03;0.70;;;0.70;;
7501;SDS011;3792;47.740;7.606;2023-04-07T08:46:31;0.57;;;0.57;;
7501;SDS011;3792;47.740;7.606;2023-04-07T08:48:59;0.50;;;0.50;;
7501;SDS011;3792;47.740;7.606;2023-04-07T08:51:27;0.50;;;0.50;;
7501;SDS011;3792;47.740;7.606;2023-04-07T08:53:57;1.20;;;0.70;;
7501;SDS011;3792;47.740;7.606;2023-04-07T08:56:32;0.60;;;0.60;;
7501;SDS011;3792;47.740;7.606;2023-04-07T08:59:00;0.70;;;0.70;;
7501;SDS011;3792;47.740;7.606;2023-04-07T09:01:27;0.60;;;0.60;;
7501;SDS011;3792;47.740;7.606;2023-04-07T09:03:56;0.60;;;0.60;;
7501;SDS011;3792;47.740;7.606;2023-04-07T09:06:23;0.77;;;0.77;;
7501;SDS011;3792;47.740;7.606;2023-04-07T09:08:51;1.40;;;1.00;;
7501;SDS011;3792;47.740;7.606;2023-04-07T09:11:18;1.03;;;1.00;;
7501;SDS011;3792;47.740;7.606;2023-04-07T09:13:47;0.70;;;0.70;;
7501;SDS011;3792;47.740;7.606;2023-04-07T09:16:15;0.90;;;0.90;;
7501;SDS011;3792;47.740;7.606;2023-04-07T09:18:42;0.67;;;0.67;;
7501;SDS011;3792;47.740;7.606;2023-04-07T09:21:09;0.80;;;0.80;;
7501;SDS011;3792;47.740;7.606;2023-04-07T09:23:36;2.67;;;0.70;;
7501;SDS011;3792;47.740;7.606;2023-04-07T09:26:17;0.70;;;0.70;;
7501;SDS011;3792;47.740;7.606;2023-04-07T09:28:48;0.60;;;0.60;;
7501;SDS011;3792;47.740;7.606;2023-04-07T09:31:16;0.70;;;0.70;;
7501;SDS011;3792;47.740;7.606;2023-04-07T09:33:43;0.70;;;0.70;;
7501;SDS011;3792;47.740;7.606;2023-04-07T09:36:10;0.67;;;0.63;;
7501;SDS011;3792;47.740;7.606;2023-04-07T09:38:38;0.70;;;0.70;;
7501;SDS011;3792;47.740;7.606;2023-04-07T09:41:06;0.77;;;0.77;;
7501;SDS011;3792;47.740;7.606;2023-04-07T09:43:35;1.00;;;0.73;;
7501;SDS011;3792;47.740;7.606;2023-04-07T09:46:11;3.80;;;2.40;;
7501;SDS011;3792;47.740;7.606;2023-04-07T09:51:07;0.93;;;0.93;;
7501;SDS011;3792;47.740;7.606;2023-04-07T09:53:42;0.70;;;0.70;;
7501;SDS011;3792;47.740;7.606;2023-04-07T09:56:11;1.00;;;1.00;;
7501;SDS011;3792;47.740;7.606;2023-04-07T09:58:40;1.20;;;1.20;;
7501;SDS011;3792;47.740;7.606;2023-04-07T10:01:08;1.00;;;0.90;;
7501;SDS011;3792;47.740;7.606;2023-04-07T10:03:38;0.70;;;0.70;;
7501;SDS011;3792;47.740;7.606;2023-04-07T10:06:05;1.47;;;1.00;;
7501;SDS011;3792;47.740;7.606;2023-04-07T10:08:33;1.00;;;1.00;;
7501;SDS011;3792;47.740;7.606;2023-04-07T10:11:01;1.23;;;0.90;;
7501;SDS011;3792;47.740;7.606;2023-04-07T10:13:31;0.83;;;0.83;;
7501;SDS011;3792;47.740;7.606;2023-04-07T10:16:01;0.60;;;0.60;;
7501;SDS011;3792;47.740;7.606;2023-04-07T10:18:31;0.60;;;0.60;;
7501;SDS011;3792;47.740;7.606;2023-04-07T10:21:00;0.60;;;0.60;;
7501;SDS011;3792;47.740;7.606;2023-04-07T10:23:31;0.60;;;0.60;;
7501;SDS011;3792;47.740;7.606;2023-04-07T10:26:09;0.57;;;0.57;;
7501;SDS011;3792;47.740;7.606;2023-04-07T10:28:37;0.50;;;0.50;;
7501;SDS011;3792;47.740;7.606;2023-04-07T10:31:06;0.70;;;0.70;;
7501;SDS011;3792;47.740;7.606;2023-04-07T10:33:45;0.70;;;0.70;;
7501;SDS011;3792;47.740;7.606;2023-04-07T10:36:13;0.50;;;0.50;;
7501;SDS011;3792;47.740;7.606;2023-04-07T10:38:40;0.50;;;0.50;;
7501;SDS011;3792;47.740;7.606;2023-04-07T10:44:00;0.60;;;0.60;;
7501;SDS011;3792;47.740;7.606;2023-04-07T10:49:30;0.50;;;0.50;;
7501;SDS011;3792;47.740;7.606;2023-04-07T10:54:48;0.50;;;0.50;;
7501;SDS011;3792;47.740;7.606;2023-04-07T11:03:53;0.40;;;0.40;;
7501;SDS011;3792;47.740;7.606;2023-04-07T11:06:23;0.37;;;0.37;;
7501;SDS011;3792;47.740;7.606;2023-04-07T11:08:51;0.50;;;0.50;;
7501;SDS011;3792;47.740;7.606;2023-04-07T11:11:20;0.50;;;0.50;;
7501;SDS011;3792;47.740;7.606;2023-04-07T11:14:03;0.40;;;0.40;;
7501;SDS011;3792;47.740;7.606;2023-04-07T11:16:34;0.67;;;0.47;;
7501;SDS011;3792;47.740;7.606;2023-04-07T11:19:05;1.23;;;0.60;;
7501;SDS011;3792;47.740;7.606;2023-04-07T11:21:34;0.50;;;0.50;;
7501;SDS011;3792;47.740;7.606;2023-04-07T11:24:01;0.73;;;0.37;;
7501;SDS011;3792;47.740;7.606;2023-04-07T11:26:29;0.30;;;0.30;;
7501;SDS011;3792;47.740;7.606;2023-04-07T11:29:02;0.60;;;0.60;;
7501;SDS011;3792;47.740;7.606;2023-04-07T11:31:29;0.50;;;0.50;;
7501;SDS011;3792;47.740;7.606;2023-04-07T11:33:57;0.87;;;0.87;;
7501;SDS011;3792;47.740;7.606;2023-04-07T11:36:27;2.17;;;1.40;;
7501;SDS011;3792;47.740;7.606;2023-04-07T11:38:57;2.33;;;1.40;;
7501;SDS011;3792;47.740;7.606;2023-04-07T11:41:26;0.70;;;0.70;;
7501;SDS011;3792;47.740;7.606;2023-04-07T11:44:04;0.30;;;0.30;;
7501;SDS011;3792;47.740;7.606;2023-04-07T11:46:32;0.50;;;0.50;;
7501;SDS011;3792;47.740;7.606;2023-04-07T11:49:09;0.43;;;0.43;;
7501;SDS011;3792;47.740;7.606;2023-04-07T11:51:37;0.60;;;0.60;;
7501;SDS011;3792;47.740;7.606;2023-04-07T11:54:07;0.60;;;0.47;;
7501;SDS011;3792;47.740;7.606;2023-04-07T11:56:41;0.33;;;0.33;;
7501;SDS011;3792;47.740;7.606;2023-04-07T11:59:17;0.37;;;0.37;;
7501;SDS011;3792;47.740;7.606;2023-04-07T12:01:47;0.30;;;0.30;;
7501;SDS011;3792;47.740;7.606;2023-04-07T12:04:14;0.40;;;0.40;;
7501;SDS011;3792;47.740;7.606;2023-04-07T12:06:42;0.40;;;0.40;;
7501;SDS011;3792;47.740;7.606;2023-04-07T12:11:54;0.40;;;0.40;;
7501;SDS011;3792;47.740;7.606;2023-04-07T12:14:22;0.40;;;0.40;;
7501;SDS011;3792;47.740;7.606;2023-04-07T12:16:50;0.40;;;0.40;;
7501;SDS011;3792;47.740;7.606;2023-04-07T12:19:17;0.53;;;0.40;;
7501;SDS011;3792;47.740;7.606;2023-04-07T12:21:44;0.50;;;0.50;;
7501;SDS011;3792;47.740;7.606;2023-04-07T12:24:11;0.60;;;0.60;;
7501;SDS011;3792;47.740;7.606;2023-04-07T12:26:39;0.43;;;0.43;;
7501;SDS011;3792;47.740;7.606;2023-04-07T12:29:06;0.80;;;0.80;;
7501;SDS011;3792;47.740;7.606;2023-04-07T12:31:33;0.80;;;0.80;;
7501;SDS011;3792;47.740;7.606;2023-04-07T12:34:01;0.80;;;0.80;;
7501;SDS011;3792;47.740;7.606;2023-04-07T12:36:28;0.97;;;0.97;;
7501;SDS011;3792;47.740;7.606;2023-04-07T12:38:55;0.80;;;0.80;;
7501;SDS011;3792;47.740;7.606;2023-04-07T12:41:23;0.70;;;0.70;;
7501;SDS011;3792;47.740;7.606;2023-04-07T12:43:53;1.10;;;1.10;;
7501;SDS011;3792;47.740;7.606;2023-04-07T12:46:20;1.00;;;1.00;;
7501;SDS011;3792;47.740;7.606;2023-04-07T12:48:47;1.07;;;1.07;;
7501;SDS011;3792;47.740;7.606;2023-04-07T12:51:15;1.40;;;1.30;;
7501;SDS011;3792;47.740;7.606;2023-04-07T12:53:42;1.10;;;1.10;;
7501;SDS011;3792;47.740;7.606;2023-04-07T12:56:11;0.70;;;0.70;;
7501;SDS011;3792;47.740;7.606;2023-04-07T12:58:38;0.90;;;0.90;;
7501;SDS011;3792;47.740;7.606;2023-04-07T13:01:09;1.60;;;1.50;;
7501;SDS011;3792;47.740;7.606;2023-04-07T13:03:36;0.60;;;0.60;;
7501;SDS011;3792;47.740;7.606;2023-04-07T13:06:03;2.10;;;0.90;;
7501;SDS011;3792;47.740;7.606;2023-04-07T13:08:31;0.80;;;0.80;;
7501;SDS011;3792;47.740;7.606;2023-04-07T13:10:58;0.87;;;0.87;;
7501;SDS011;3792;47.740;7.606;2023-04-07T13:13:25;0.70;;;0.70;;
7501;SDS011;3792;47.740;7.606;2023-04-07T13:15:52;1.63;;;1.10;;
7501;SDS011;3792;47.740;7.606;2023-04-07T13:18:20;0.70;;;0.70;;
7501;SDS011;3792;47.740;7.606;2023-04-07T13:20:47;0.90;;;0.90;;
7501;SDS011;3792;47.740;7.606;2023-04-07T13:23:14;0.80;;;0.80;;
7501;SDS011;3792;47.740;7.606;2023-04-07T13:25:41;1.10;;;1.10;;
7501;SDS011;3792;47.740;7.606;2023-04-07T13:28:08;1.70;;;1.07;;
7501;SDS011;3792;47.740;7.606;2023-04-07T13:30:35;1.97;;;1.77;;
7501;SDS011;3792;47.740;7.606;2023-04-07T13:33:02;0.70;;;0.70;;
7501;SDS011;3792;47.740;7.606;2023-04-07T13:35:31;0.70;;;0.70;;
7501;SDS011;3792;47.740;7.606;2023-04-07T13:38:00;0.60;;;0.60;;
7501;SDS011;3792;47.740;7.606;2023-04-07T13:40:27;3.13;;;2.70;;
7501;SDS011;3792;47.740;7.606;2023-04-07T13:42:54;1.47;;;1.13;;
7501;SDS011;3792;47.740;7.606;2023-04-07T13:45:22;1.73;;;1.20;;
7501;SDS011;3792;47.740;7.606;2023-04-07T13:47:49;1.20;;;1.20;;
7501;SDS011;3792;47.740;7.606;2023-04-07T13:50:16;1.30;;;1.20;;
7501;SDS011;3792;47.740;7.606;2023-04-07T13:52:46;1.07;;;1.07;;
7501;SDS011;3792;47.740;7.606;2023-04-07T13:55:13;1.10;;;1.10;;
7501;SDS011;3792;47.740;7.606;2023-04-07T13:57:41;1.60;;;1.50;;
7501;SDS011;3792;47.740;7.606;2023-04-07T14:00:08;1.50;;;1.20;;
7501;SDS011;3792;47.740;7.606;2023-04-07T14:02:35;1.00;;;1.00;;
7501;SDS011;3792;47.740;7.606;2023-04-07T14:05:03;1.10;;;1.10;;
7501;SDS011;3792;47.740;7.606;2023-04-07T14:07:30;0.80;;;0.80;;
7501;SDS011;3792;47.740;7.606;2023-04-07T14:10:00;1.00;;;1.00;;
7501;SDS011;3792;47.740;7.606;2023-04-07T14:12:27;1.43;;;1.33;;
7501;SDS011;3792;47.740;7.606;2023-04-07T14:14:54;0.90;;;0.90;;
7501;SDS011;3792;47.740;7.606;2023-04-07T14:17:21;1.40;;;1.37;;
7501;SDS011;3792;47.740;7.606;2023-04-07T14:19:48;1.10;;;1.10;;
7501;SDS011;3792;47.740;7.606;2023-04-07T14:22:15;1.80;;;1.70;;
7501;SDS011;3792;47.740;7.606;2023-04-07T14:24:42;1.97;;;1.10;;
7501;SDS011;3792;47.740;7.606;2023-04-07T14:27:11;1.13;;;1.13;;
7501;SDS011;3792;47.740;7.606;2023-04-07T14:29:38;1.47;;;1.37;;
7501;SDS011;3792;47.740;7.606;2023-04-07T14:32:05;1.10;;;1.10;;
7501;SDS011;3792;47.740;7.606;2023-04-07T14:34:32;1.10;;;1.10;;
7501;SDS011;3792;47.740;7.606;2023-04-07T14:36:59;1.10;;;1.10;;
7501;SDS011;3792;47.740;7.606;2023-04-07T14:39:26;0.90;;;0.90;;
7501;SDS011;3792;47.740;7.606;2023-04-07T14:41:53;2.00;;;1.90;;
7501;SDS011;3792;47.740;7.606;2023-04-07T14:44:22;1.90;;;1.80;;
7501;SDS011;3792;47.740;7.606;2023-04-07T14:46:49;1.20;;;1.20;;
7501;SDS011;3792;47.740;7.606;2023-04-07T14:49:16;1.70;;;1.60;;
7501;SDS011;3792;47.740;7.606;2023-04-07T14:51:43;1.00;;;1.00;;
7501;SDS011;3792;47.740;7.606;2023-04-07T14:54:10;0.93;;;0.93;;
7501;SDS011;3792;47.740;7.606;2023-04-07T14:56:37;1.30;;;1.20;;
7501;SDS011;3792;47.740;7.606;2023-04-07T14:59:05;1.10;;;1.10;;
7501;SDS011;3792;47.740;7.606;2023-04-07T15:01:33;1.37;;;1.33;;
7501;SDS011;3792;47.740;7.606;2023-04-07T15:04:00;1.60;;;1.50;;
7501;SDS011;3792;47.740;7.606;2023-04-07T15:06:27;2.57;;;1.27;;
7501;SDS011;3792;47.740;7.606;2023-04-07T15:08:56;1.63;;;1.53;;
7501;SDS011;3792;47.740;7.606;2023-04-07T15:11:23;1.50;;;1.40;;
7501;SDS011;3792;47.740;7.606;2023-04-07T15:13:50;2.27;;;1.13;;
7501;SDS011;3792;47.740;7.606;2023-04-07T15:16:17;1.43;;;1.33;;
7501;SDS011;3792;47.740;7.606;2023-04-07T15:18:45;1.67;;;1.57;;
7501;SDS011;3792;47.740;7.606;2023-04-07T15:21:13;1.30;;;1.20;;
7501;SDS011;3792;47.740;7.606;2023-04-07T15:23:40;1.40;;;1.33;;
7501;SDS011;3792;47.740;7.606;2023-04-07T15:26:08;2.17;;;1.50;;
7501;SDS011;3792;47.740;7.606;2023-04-07T15:28:35;1.20;;;1.20;;
7501;SDS011;3792;47.740;7.606;2023-04-07T15:31:02;1.33;;;1.23;;
7501;SDS011;3792;47.740;7.606;2023-04-07T15:33:32;1.30;;;1.30;;
7501;SDS011;3792;47.740;7.606;2023-04-07T15:36:02;2.13;;;1.70;;
7501;SDS011;3792;47.740;7.606;2023-04-07T15:38:29;2.03;;;1.83;;
7501;SDS011;3792;47.740;7.606;2023-04-07T15:40:56;10.53;;;6.27;;